createdAt,value
2018-09-28T00:02:01.220Z,2.60
2018-09-28T00:04:29.601Z,1.95
2018-09-28T00:06:58.117Z,2.30
2018-09-28T00:09:26.420Z,1.85
2018-09-28T00:11:59.239Z,2.37
2018-09-28T00:14:27.492Z,1.85
2018-09-28T00:16:56.004Z,2.12
2018-09-28T00:19:24.414Z,2.40
2018-09-28T00:21:53.080Z,2.15
2018-09-28T00:24:21.462Z,2.12
2018-09-28T00:26:55.434Z,2.00
2018-09-28T00:29:23.955Z,2.17
2018-09-28T00:31:52.238Z,2.60
2018-09-28T00:34:20.528Z,2.33
2018-09-28T00:36:51.089Z,2.30
2018-09-28T00:39:19.789Z,2.45
2018-09-28T00:41:48.354Z,2.27
2018-09-28T00:44:17.303Z,2.40
2018-09-28T00:46:49.188Z,2.30
2018-09-28T00:49:17.552Z,2.40
2018-09-28T00:51:46.200Z,2.25
2018-09-28T00:54:14.559Z,2.77
2018-09-28T00:56:45.126Z,2.40
2018-09-28T00:59:13.518Z,2.33
2018-09-28T01:01:42.021Z,2.50
2018-09-28T01:04:10.518Z,2.40
2018-09-28T01:06:38.833Z,2.22
2018-09-28T01:09:09.958Z,2.90
2018-09-28T01:11:38.600Z,2.50
2018-09-28T01:14:07.092Z,2.30
2018-09-28T01:16:35.701Z,2.30
2018-09-28T01:19:04.146Z,2.40
2018-09-28T01:21:32.410Z,2.83
2018-09-28T01:24:00.786Z,3.10
2018-09-28T01:26:37.040Z,3.17
2018-09-28T01:29:05.473Z,2.70
2018-09-28T01:31:33.961Z,3.30
2018-09-28T01:34:03.712Z,3.17
2018-09-28T01:36:32.305Z,2.90
2018-09-28T01:39:00.823Z,2.92
2018-09-28T01:41:29.199Z,2.80
2018-09-28T01:43:57.579Z,2.87
2018-09-28T01:46:26.215Z,2.70
2018-09-28T01:48:54.589Z,3.02
2018-09-28T01:51:22.980Z,2.95
2018-09-28T01:53:58.011Z,3.45
2018-09-28T01:56:26.543Z,3.42
2018-09-28T01:58:54.948Z,3.00
2018-09-28T02:01:23.564Z,2.87
2018-09-28T02:03:52.168Z,3.15
2018-09-28T02:06:20.595Z,2.98
2018-09-28T02:08:48.951Z,3.65
2018-09-28T02:11:17.368Z,3.50
2018-09-28T02:13:53.130Z,3.70
2018-09-28T02:16:21.527Z,3.30
2018-09-28T02:18:50.014Z,3.65
2018-09-28T02:21:18.516Z,3.40
2018-09-28T02:23:46.843Z,3.20
2018-09-28T02:26:15.353Z,4.05
2018-09-28T02:28:43.727Z,3.85
2018-09-28T02:31:12.215Z,3.77
2018-09-28T02:33:40.520Z,3.90
2018-09-28T02:36:09.427Z,3.62
2018-09-28T02:38:38.210Z,3.55
2018-09-28T02:41:06.838Z,4.00
2018-09-28T02:43:35.254Z,3.87
2018-09-28T02:46:03.426Z,3.40
2018-09-28T02:48:31.644Z,3.90
2018-09-28T02:51:00.354Z,4.15
2018-09-28T02:53:28.733Z,4.03
2018-09-28T02:55:57.253Z,3.45
2018-09-28T02:58:25.644Z,4.25
2018-09-28T03:00:54.152Z,4.20
2018-09-28T03:03:22.554Z,4.12
2018-09-28T03:05:50.964Z,4.28
2018-09-28T03:08:19.345Z,4.90
2018-09-28T03:10:48.484Z,4.90
2018-09-28T03:13:17.377Z,4.97
2018-09-28T03:15:45.855Z,5.50
2018-09-28T03:18:14.170Z,4.30
2018-09-28T03:20:45.944Z,5.15
2018-09-28T03:23:14.485Z,5.17
2018-09-28T03:25:42.978Z,5.62
2018-09-28T03:28:11.318Z,6.08
2018-09-28T03:30:39.842Z,5.75
2018-09-28T03:33:08.237Z,5.60
2018-09-28T03:35:36.627Z,5.90
2018-09-28T03:38:05.148Z,6.10
2018-09-28T03:40:33.631Z,6.53
2018-09-28T03:43:01.943Z,8.70
2018-09-28T03:45:30.233Z,7.30
2018-09-28T03:47:58.553Z,6.95
2018-09-28T03:50:27.119Z,6.83
2018-09-28T03:52:55.462Z,6.45
2018-09-28T03:55:30.181Z,7.92
2018-09-28T03:57:58.694Z,7.05
2018-09-28T04:00:27.403Z,7.95
2018-09-28T04:02:55.753Z,6.30
2018-09-28T04:05:24.218Z,7.00
2018-09-28T04:08:02.124Z,6.80
2018-09-28T04:10:30.612Z,7.45
2018-09-28T04:12:58.951Z,7.58
2018-09-28T04:15:27.413Z,7.42
2018-09-28T04:17:56.025Z,6.60
2018-09-28T04:20:24.389Z,7.05
2018-09-28T04:22:52.708Z,6.25
2018-09-28T04:25:21.207Z,7.05
2018-09-28T04:27:49.819Z,7.60
2018-09-28T04:30:18.103Z,7.15
2018-09-28T04:32:46.391Z,6.12
2018-09-28T04:35:14.801Z,7.65
2018-09-28T04:37:42.988Z,6.85
2018-09-28T04:40:11.395Z,7.00
2018-09-28T04:42:40.017Z,7.58
2018-09-28T04:45:08.543Z,6.40
2018-09-28T04:47:36.809Z,7.20
2018-09-28T04:50:05.385Z,8.03
2018-09-28T04:52:40.258Z,6.40
2018-09-28T04:55:08.521Z,6.58
2018-09-28T04:57:37.038Z,6.60
2018-09-28T05:00:05.664Z,6.60
2018-09-28T05:02:33.756Z,8.50
2018-09-28T05:05:02.130Z,6.87
2018-09-28T05:07:30.545Z,7.60
2018-09-28T05:09:59.276Z,6.20
2018-09-28T05:12:27.538Z,7.10
2018-09-28T05:14:57.182Z,7.25
2018-09-28T05:17:25.789Z,8.48
2018-09-28T05:19:54.181Z,5.97
2018-09-28T05:22:22.622Z,7.83
2018-09-28T05:24:51.189Z,6.40
2018-09-28T05:27:19.581Z,7.20
2018-09-28T05:29:48.187Z,6.83
2018-09-28T05:32:16.705Z,8.38
2018-09-28T05:34:45.588Z,7.80
2018-09-28T05:37:13.873Z,6.83
2018-09-28T05:39:42.194Z,7.12
2018-09-28T05:42:10.702Z,6.28
2018-09-28T05:44:39.207Z,7.15
2018-09-28T05:47:07.706Z,8.48
2018-09-28T05:49:35.970Z,8.08
2018-09-28T05:52:04.497Z,8.60
2018-09-28T05:54:33.002Z,8.00
2018-09-28T05:57:01.297Z,6.53
2018-09-28T05:59:35.134Z,7.95
2018-09-28T06:02:08.728Z,8.00
2018-09-28T06:04:42.537Z,9.88
2018-09-28T06:07:10.973Z,9.68
2018-09-28T06:09:39.449Z,8.63
2018-09-28T06:12:08.069Z,9.75
2018-09-28T06:15:00.509Z,8.08
2018-09-28T06:17:28.779Z,8.85
2018-09-28T06:19:57.271Z,7.17
2018-09-28T06:22:43.277Z,7.87
2018-09-28T06:25:11.684Z,6.10
2018-09-28T06:27:40.095Z,6.62
2018-09-28T06:30:08.612Z,19.98
2018-09-28T06:35:40.717Z,7.20
2018-09-28T06:38:09.060Z,6.40
2018-09-28T06:40:37.251Z,7.97
2018-09-28T06:43:05.832Z,6.70
2018-09-28T06:45:45.835Z,7.13
2018-09-28T06:48:14.428Z,8.00
2018-09-28T06:50:42.526Z,6.93
2018-09-28T06:53:10.622Z,7.67
2018-09-28T06:55:46.590Z,6.67
2018-09-28T06:58:15.213Z,7.17
2018-09-28T07:00:43.459Z,7.67
2018-09-28T07:03:15.981Z,7.20
2018-09-28T07:05:44.385Z,6.73
2018-09-28T07:08:12.555Z,7.03
2018-09-28T07:10:41.267Z,6.87
2018-09-28T07:13:09.869Z,7.43
2018-09-28T07:15:38.042Z,7.03
2018-09-28T07:18:06.576Z,7.13
2018-09-28T07:20:34.944Z,7.37
2018-09-28T07:23:07.145Z,8.80
2018-09-28T07:25:35.767Z,7.67
2018-09-28T07:28:04.186Z,7.63
2018-09-28T07:30:32.793Z,7.80
2018-09-28T07:33:07.408Z,7.63
2018-09-28T07:35:35.772Z,8.40
2018-09-28T07:38:04.304Z,8.07
2018-09-28T07:40:36.592Z,8.30
2018-09-28T07:43:05.080Z,8.47
2018-09-28T07:45:33.483Z,9.77
2018-09-28T07:48:01.901Z,10.07
2018-09-28T07:50:31.409Z,11.27
2018-09-28T07:52:59.695Z,10.63
2018-09-28T07:55:27.817Z,11.10
2018-09-28T07:57:56.229Z,11.00
2018-09-28T08:00:28.381Z,13.00
2018-09-28T08:02:56.871Z,11.07
2018-09-28T08:05:25.289Z,11.47
2018-09-28T08:07:53.791Z,11.60
2018-09-28T08:10:22.407Z,12.07
2018-09-28T08:12:56.015Z,13.00
2018-09-28T08:15:24.417Z,11.07
2018-09-28T08:17:52.520Z,12.77
2018-09-28T08:20:26.114Z,11.20
2018-09-28T08:22:54.636Z,12.03
2018-09-28T08:25:23.233Z,11.10
2018-09-28T08:27:51.615Z,11.23
2018-09-28T08:30:20.153Z,12.10
2018-09-28T08:32:48.540Z,11.43
2018-09-28T08:35:17.034Z,11.97
2018-09-28T08:37:45.344Z,11.70
2018-09-28T08:40:14.034Z,11.17
2018-09-28T08:42:42.155Z,11.80
2018-09-28T08:45:10.040Z,13.10
2018-09-28T08:47:38.313Z,12.47
2018-09-28T08:50:17.984Z,16.57
2018-09-28T08:52:46.032Z,14.50
2018-09-28T08:55:14.541Z,15.33
2018-09-28T08:58:03.847Z,16.10
2018-09-28T09:00:32.221Z,15.63
2018-09-28T09:03:00.285Z,15.07
2018-09-28T09:05:28.591Z,16.23
2018-09-28T09:07:56.901Z,14.73
2018-09-28T09:10:25.304Z,15.40
2018-09-28T09:12:53.708Z,12.53
2018-09-28T09:15:22.092Z,13.43
2018-09-28T09:17:51.701Z,14.10
2018-09-28T09:20:20.044Z,14.50
2018-09-28T09:22:48.387Z,13.13
2018-09-28T09:25:16.858Z,15.40
2018-09-28T09:27:45.418Z,14.30
2018-09-28T09:30:14.017Z,15.87
2018-09-28T09:32:42.149Z,15.67
2018-09-28T09:35:12.540Z,14.97
2018-09-28T09:37:40.671Z,16.23
2018-09-28T09:40:09.019Z,16.80
2018-09-28T09:42:37.540Z,16.90
2018-09-28T09:45:06.172Z,17.10
2018-09-28T09:47:34.593Z,16.80
2018-09-28T09:50:03.168Z,16.60
2018-09-28T09:52:31.661Z,16.67
2018-09-28T09:55:00.064Z,17.23
2018-09-28T09:57:28.582Z,17.33
2018-09-28T09:59:57.272Z,18.27
2018-09-28T10:02:31.206Z,16.57
2018-09-28T10:04:59.398Z,15.80
2018-09-28T10:07:27.800Z,16.50
2018-09-28T10:09:56.218Z,16.60
2018-09-28T10:12:24.561Z,16.30
2018-09-28T10:14:53.012Z,17.13
2018-09-28T10:17:21.378Z,17.40
2018-09-28T10:19:50.011Z,17.07
2018-09-28T10:22:18.503Z,16.03
2018-09-28T10:24:46.806Z,15.40
2018-09-28T10:27:15.319Z,16.93
2018-09-28T10:29:44.161Z,17.20
2018-09-28T10:32:12.503Z,18.20
2018-09-28T10:34:40.820Z,19.30
2018-09-28T10:37:09.081Z,19.00
2018-09-28T10:39:37.448Z,20.03
2018-09-28T10:42:05.817Z,19.27
2018-09-28T10:44:34.311Z,18.50
2018-09-28T10:47:02.837Z,18.50
2018-09-28T10:49:31.297Z,19.73
2018-09-28T10:51:59.785Z,20.20
2018-09-28T10:54:28.120Z,20.17
2018-09-28T10:56:56.511Z,19.10
2018-09-28T10:59:25.021Z,19.00
2018-09-28T11:01:53.314Z,19.00
2018-09-28T11:04:21.980Z,20.43
2018-09-28T11:06:50.198Z,17.67
2018-09-28T11:09:18.524Z,17.63
2018-09-28T11:11:46.909Z,16.07
2018-09-28T11:14:15.316Z,15.70
2018-09-28T11:16:43.591Z,15.83
2018-09-28T11:19:12.017Z,15.90
2018-09-28T11:21:40.649Z,15.43
2018-09-28T11:24:09.200Z,16.17
2018-09-28T11:26:37.599Z,15.67
2018-09-28T11:29:05.996Z,10.57
2018-09-28T11:31:34.515Z,9.37
2018-09-28T11:34:03.321Z,8.03
2018-09-28T11:36:31.826Z,5.60
2018-09-28T11:39:00.128Z,6.93
2018-09-28T11:41:28.641Z,6.70
2018-09-28T11:43:57.229Z,6.77
2018-09-28T11:46:25.602Z,5.47
2018-09-28T11:48:53.920Z,5.37
2018-09-28T11:51:22.026Z,5.13
2018-09-28T11:53:50.524Z,6.15
2018-09-28T11:56:19.121Z,5.47
2018-09-28T11:58:47.527Z,5.87
2018-09-28T12:01:15.805Z,5.28
2018-09-28T12:03:44.438Z,5.85
2018-09-28T12:06:12.992Z,6.20
2018-09-28T12:08:41.532Z,11.73
2018-09-28T12:11:09.811Z,4.87
2018-09-28T12:13:38.244Z,10.98
2018-09-28T12:16:06.526Z,6.50
2018-09-28T12:18:34.939Z,6.97
2018-09-28T12:21:03.310Z,7.08
2018-09-28T12:23:31.952Z,9.70
2018-09-28T12:26:00.235Z,7.17
2018-09-28T12:28:28.515Z,7.17
2018-09-28T12:30:56.929Z,7.47
2018-09-28T12:33:25.469Z,6.70
2018-09-28T12:35:53.733Z,6.92
2018-09-28T12:38:22.219Z,6.20
2018-09-28T12:40:50.799Z,5.70
2018-09-28T12:43:19.157Z,5.25
2018-09-28T12:45:47.534Z,23.25
2018-09-28T12:48:16.026Z,10.53
2018-09-28T12:50:44.532Z,47.95
2018-09-28T12:53:12.814Z,10.20
2018-09-28T12:55:41.215Z,49.23
2018-09-28T12:58:09.816Z,16.17
2018-09-28T13:00:38.165Z,11.93
2018-09-28T13:03:06.396Z,8.70
2018-09-28T13:05:34.512Z,6.87
2018-09-28T13:08:02.886Z,10.85
2018-09-28T13:10:31.313Z,3.87
2018-09-28T13:12:59.723Z,3.33
2018-09-28T13:15:28.098Z,4.00
2018-09-28T13:17:56.611Z,2.83
2018-09-28T13:20:25.184Z,3.55
2018-09-28T13:22:53.517Z,4.05
2018-09-28T13:25:21.997Z,3.98
2018-09-28T13:27:50.409Z,4.10
2018-09-28T13:30:18.871Z,4.50
2018-09-28T13:32:47.191Z,5.60
2018-09-28T13:35:15.391Z,6.15
2018-09-28T13:37:43.879Z,5.58
2018-09-28T13:40:12.228Z,6.08
2018-09-28T13:42:41.081Z,8.60
2018-09-28T13:45:09.766Z,15.93
2018-09-28T13:47:38.209Z,22.45
2018-09-28T13:50:07.515Z,25.92
2018-09-28T13:52:36.126Z,8.95
2018-09-28T13:55:04.762Z,9.13
2018-09-28T13:57:33.348Z,9.85
2018-09-28T14:00:01.748Z,7.80
2018-09-28T14:02:30.154Z,10.13
2018-09-28T14:04:58.537Z,30.88
2018-09-28T14:07:26.961Z,22.27
2018-09-28T14:09:55.322Z,10.00
2018-09-28T14:12:23.799Z,10.25
2018-09-28T14:14:52.278Z,13.70
2018-09-28T14:17:20.660Z,13.15
2018-09-28T14:19:49.155Z,11.53
2018-09-28T14:22:17.883Z,13.70
2018-09-28T14:24:46.707Z,13.85
2018-09-28T14:27:15.224Z,10.25
2018-09-28T14:29:43.773Z,8.53
2018-09-28T14:32:12.643Z,9.38
2018-09-28T14:34:41.265Z,8.30
2018-09-28T14:37:10.503Z,9.63
2018-09-28T14:42:31.374Z,9.10
2018-09-28T14:45:00.444Z,9.08
2018-09-28T14:47:29.202Z,14.05
2018-09-28T14:49:57.776Z,13.70
2018-09-28T14:52:26.598Z,11.40
2018-09-28T14:54:55.191Z,10.15
2018-09-28T14:57:23.799Z,11.88
2018-09-28T14:59:52.279Z,13.83
2018-09-28T15:02:24.761Z,14.00
2018-09-28T15:04:53.396Z,15.98
2018-09-28T15:07:21.654Z,10.80
2018-09-28T15:09:49.881Z,11.33
2018-09-28T15:12:18.631Z,12.70
2018-09-28T15:14:47.315Z,14.18
2018-09-28T15:17:15.737Z,12.37
2018-09-28T15:19:44.165Z,11.25
2018-09-28T15:22:12.578Z,9.78
2018-09-28T15:24:41.077Z,11.43
2018-09-28T15:27:09.467Z,13.00
2018-09-28T15:29:38.284Z,13.83
2018-09-28T15:32:06.793Z,13.22
2018-09-28T15:34:35.239Z,13.40
2018-09-28T15:37:03.613Z,11.73
2018-09-28T15:39:32.292Z,12.10
2018-09-28T15:42:00.556Z,11.57
2018-09-28T15:44:28.667Z,12.23
2018-09-28T15:46:56.898Z,14.25
2018-09-28T15:49:26.504Z,13.72
2018-09-28T15:51:55.230Z,12.35
2018-09-28T15:54:23.522Z,13.00
2018-09-28T15:56:52.008Z,14.13
2018-09-28T15:59:20.518Z,15.88
2018-09-28T16:01:48.944Z,12.80
2018-09-28T16:04:17.310Z,16.40
2018-09-28T16:06:45.758Z,15.20
2018-09-28T16:09:14.317Z,15.65
2018-09-28T16:11:42.732Z,27.17
2018-09-28T16:14:11.142Z,16.65
2018-09-28T16:16:39.328Z,15.30
2018-09-28T16:19:07.827Z,15.98
2018-09-28T16:21:36.326Z,28.15
2018-09-28T16:24:04.928Z,20.80
2018-09-28T16:26:33.419Z,14.30
2018-09-28T16:29:02.654Z,20.48
2018-09-28T16:31:31.067Z,11.95
2018-09-28T16:33:59.550Z,12.93
2018-09-28T16:36:28.240Z,5.83
2018-09-28T16:38:56.606Z,3.65
2018-09-28T16:41:25.108Z,3.12
2018-09-28T16:43:53.552Z,3.00
2018-09-28T16:46:22.262Z,2.25
2018-09-28T16:48:50.556Z,2.58
2018-09-28T16:51:18.728Z,2.40
2018-09-28T16:53:46.957Z,2.00
2018-09-28T16:56:16.456Z,2.20
2018-09-28T16:58:45.083Z,1.90
2018-09-28T17:01:13.488Z,1.95
2018-09-28T17:03:42.656Z,2.85
2018-09-28T17:06:11.306Z,3.35
2018-09-28T17:08:39.693Z,2.40
2018-09-28T17:11:08.303Z,4.67
2018-09-28T17:13:37.166Z,6.12
2018-09-28T17:16:05.402Z,3.37
2018-09-28T17:18:34.017Z,5.40
2018-09-28T17:21:02.401Z,4.70
2018-09-28T17:23:31.743Z,4.58
2018-09-28T17:26:00.044Z,4.55
2018-09-28T17:28:28.521Z,5.65
2018-09-28T17:30:57.239Z,5.40
2018-09-28T17:33:25.621Z,16.30
2018-09-28T17:35:54.464Z,9.58
2018-09-28T17:38:22.860Z,7.53
2018-09-28T17:40:51.664Z,6.85
2018-09-28T17:43:19.960Z,8.58
2018-09-28T17:45:48.300Z,10.63
2018-09-28T17:48:16.968Z,10.55
2018-09-28T17:50:45.366Z,13.53
2018-09-28T17:53:13.758Z,10.82
2018-09-28T17:55:42.276Z,16.82
2018-09-28T17:58:10.443Z,12.93
2018-09-28T18:00:39.679Z,8.20
2018-09-28T18:03:08.083Z,6.80
2018-09-28T18:05:37.847Z,7.62
2018-09-28T18:08:06.204Z,6.80
2018-09-28T18:10:34.567Z,4.15
2018-09-28T18:13:03.117Z,5.20
2018-09-28T18:15:33.629Z,6.42
2018-09-28T18:18:02.146Z,4.30
2018-09-28T18:20:30.426Z,5.15
2018-09-28T18:22:58.941Z,6.05
2018-09-28T18:25:29.583Z,6.40
2018-09-28T18:27:58.115Z,5.30
2018-09-28T18:30:26.713Z,4.62
2018-09-28T18:32:55.317Z,4.60
2018-09-28T18:35:23.915Z,8.93
2018-09-28T18:37:53.109Z,8.60
2018-09-28T18:40:21.736Z,5.70
2018-09-28T18:42:50.227Z,12.47
2018-09-28T18:45:18.961Z,11.10
2018-09-28T18:47:47.458Z,5.67
2018-09-28T18:50:15.992Z,6.03
2018-09-28T18:52:44.463Z,6.10
2018-09-28T18:55:12.817Z,5.90
2018-09-28T18:57:41.033Z,5.25
2018-09-28T19:00:09.664Z,3.60
2018-09-28T19:02:38.213Z,12.78
2018-09-28T19:05:06.533Z,7.42
2018-09-28T19:07:34.743Z,3.70
2018-09-28T19:10:03.372Z,3.15
2018-09-28T19:12:32.090Z,3.10
2018-09-28T19:15:01.002Z,2.95
2018-09-28T19:17:29.476Z,3.50
2018-09-28T19:19:57.995Z,4.30
2018-09-28T19:22:26.558Z,4.45
2018-09-28T19:24:55.094Z,4.78
2018-09-28T19:27:30.700Z,5.62
2018-09-28T19:29:59.178Z,6.42
2018-09-28T19:32:27.740Z,9.95
2018-09-28T19:34:56.278Z,8.50
2018-09-28T19:37:25.877Z,2.80
2018-09-28T19:39:54.372Z,3.35
2018-09-28T19:42:22.771Z,3.35
2018-09-28T19:44:51.383Z,6.05
2018-09-28T19:47:19.788Z,2.47
2018-09-28T19:49:48.183Z,7.55
2018-09-28T19:52:16.376Z,2.80
2018-09-28T19:54:44.674Z,3.65
2018-09-28T19:57:12.955Z,3.40
2018-09-28T19:59:41.579Z,2.30
2018-09-28T20:02:10.018Z,1.90
2018-09-28T20:04:38.444Z,2.47
2018-09-28T20:07:07.080Z,2.40
2018-09-28T20:09:36.196Z,1.85
2018-09-28T20:12:04.684Z,3.62
2018-09-28T20:14:33.305Z,2.00
2018-09-28T20:17:01.710Z,2.42
2018-09-28T20:19:30.298Z,2.80
2018-09-28T20:21:59.014Z,3.12
2018-09-28T20:24:27.282Z,2.22
2018-09-28T20:26:55.608Z,2.50
2018-09-28T20:29:24.342Z,1.72
2018-09-28T20:31:52.589Z,1.55
2018-09-28T20:34:21.148Z,2.02
2018-09-28T20:36:49.921Z,1.75
2018-09-28T20:39:18.111Z,1.75
2018-09-28T20:41:46.606Z,1.65
2018-09-28T20:44:15.222Z,1.85
2018-09-28T20:46:43.724Z,1.57
2018-09-28T20:49:12.242Z,2.30
2018-09-28T20:51:40.715Z,2.05
2018-09-28T20:54:09.035Z,2.10
2018-09-28T20:56:37.616Z,1.70
2018-09-28T20:59:06.028Z,2.15
2018-09-28T21:01:34.234Z,1.70
2018-09-28T21:04:02.524Z,2.00
2018-09-28T21:06:31.092Z,2.00
2018-09-28T21:08:59.391Z,1.60
2018-09-28T21:11:27.806Z,1.30
2018-09-28T21:13:56.477Z,1.02
2018-09-28T21:16:24.811Z,1.42
2018-09-28T21:18:53.378Z,1.80
2018-09-28T21:21:21.945Z,1.62
2018-09-28T21:23:50.434Z,1.30
2018-09-28T21:26:19.531Z,1.30
2018-09-28T21:28:47.973Z,1.00
2018-09-28T21:31:16.247Z,1.40
2018-09-28T21:33:44.617Z,1.52
2018-09-28T21:36:12.942Z,1.50
2018-09-28T21:38:41.238Z,1.62
2018-09-28T21:41:10.439Z,1.12
2018-09-28T21:43:38.750Z,1.30
2018-09-28T21:46:07.488Z,1.55
2018-09-28T21:48:35.848Z,1.77
2018-09-28T21:51:04.135Z,1.12
2018-09-28T21:53:32.564Z,1.27
2018-09-28T21:56:01.069Z,1.35
2018-09-28T21:58:29.565Z,1.50
2018-09-28T22:00:58.166Z,1.90
2018-09-28T22:03:26.849Z,2.30
2018-09-28T22:05:55.282Z,0.88
2018-09-28T22:08:23.569Z,2.12
2018-09-28T22:10:51.673Z,1.00
2018-09-28T22:13:20.150Z,1.60
2018-09-28T22:15:49.015Z,1.32
2018-09-28T22:18:17.480Z,1.25
2018-09-28T22:20:46.694Z,1.40
2018-09-28T22:23:15.162Z,1.05
2018-09-28T22:25:43.708Z,1.32
2018-09-28T22:28:12.084Z,0.80
2018-09-28T22:30:40.375Z,1.07
2018-09-28T22:33:08.892Z,2.30
2018-09-28T22:35:37.281Z,1.10
2018-09-28T22:38:05.869Z,1.40
2018-09-28T22:40:34.389Z,1.30
2018-09-28T22:43:02.878Z,0.95
2018-09-28T22:45:31.092Z,1.85
2018-09-28T22:47:59.396Z,1.42
2018-09-28T22:50:27.786Z,0.90
2018-09-28T22:52:57.226Z,1.50
2018-09-28T22:55:25.628Z,0.98
2018-09-28T22:57:54.140Z,0.80
2018-09-28T23:00:22.610Z,1.05
2018-09-28T23:02:52.132Z,1.10
2018-09-28T23:05:20.657Z,1.10
2018-09-28T23:07:49.239Z,1.35
2018-09-28T23:10:17.455Z,1.07
2018-09-28T23:12:49.823Z,0.93
2018-09-28T23:15:18.143Z,0.90
2018-09-28T23:17:46.615Z,0.90
2018-09-28T23:20:15.016Z,0.57
2018-09-28T23:22:43.639Z,1.02
2018-09-28T23:25:12.021Z,0.88
2018-09-28T23:27:40.345Z,1.42
2018-09-28T23:30:08.942Z,0.98
2018-09-28T23:32:37.446Z,0.90
2018-09-28T23:35:05.950Z,1.25
2018-09-28T23:37:34.239Z,1.00
2018-09-28T23:40:04.857Z,0.70
2018-09-28T23:42:33.166Z,1.17
2018-09-28T23:45:01.354Z,0.90
2018-09-28T23:47:30.034Z,0.60
2018-09-28T23:50:01.350Z,1.15
2018-09-28T23:52:29.656Z,0.90
2018-09-28T23:54:57.930Z,1.45
2018-09-28T23:57:26.544Z,1.30
2018-09-28T23:59:54.946Z,0.90
